Time;durP1;ratioP1;P1;durP2;ratioP2;P2;SDS_P1;SDS_P2;PMS_P1;PMS_P2;Temp;Humidity;BMP_temperature;BMP_pressure;BME280_temperature;BME280_humidity;BME280_pressure;Samples;Min_cycle;Max_cycle;Signal;HPM_P1;HPM_P2
2024/04/14 00:02:11;;;;;;;;;;;;;;;19.53;91.24;101712.66;5495895;26;1004;-82
2024/04/14 00:04:37;;;;;;;;;;;;;;;19.51;92.47;101711.97;5495430;26;820;-82
2024/04/14 00:07:03;;;;;;;;;;;;;;;19.46;92.20;101707.00;5496042;26;1204;-82
2024/04/14 00:09:29;;;;;;;;;;;;;;;19.47;91.68;101713.31;5463872;26;818;-83
2024/04/14 00:11:55;;;;;;;;;;;;;;;19.38;92.90;101704.25;5495873;26;945;-82
2024/04/14 00:14:23;;;;;;;;;;;;;;;19.32;93.65;101704.03;5463588;26;889;-82
2024/04/14 00:16:50;;;;;;;;;;;;;;;19.25;94.29;101705.66;5463877;26;1207;-82
2024/04/14 00:19:20;;;;;;;;;;;;;;;19.28;93.92;101717.09;5496264;26;1813;-82
2024/04/14 00:21:46;;;;;;;;;;;;;;;19.26;93.50;101712.81;5463108;26;837;-82
2024/04/14 00:24:12;;;;;;;;;;;;;;;19.48;92.91;101721.31;5495495;26;926;-82
2024/04/14 00:26:38;;;;;;;;;;;;;;;19.39;92.33;101718.72;5462889;26;1198;-81
2024/04/14 00:29:04;;;;;;;;;;;;;;;19.34;94.17;101718.31;5496155;26;890;-82
2024/04/14 00:31:30;;;;;;;;;;;;;;;19.31;96.07;101707.75;5495527;26;942;-81
2024/04/14 00:33:56;;;;;;;;;;;;;;;19.20;93.92;101715.16;5463305;26;794;-81
2024/04/14 00:36:22;;;;;;;;;;;;;;;19.03;95.64;101717.91;5494576;26;1186;-81
2024/04/14 00:38:48;;;;;;;;;;;;;;;19.05;96.73;101724.03;5495115;26;918;-81
2024/04/14 00:41:15;;;;;;;;;;;;;;;19.03;97.49;101716.03;5494825;26;1873;-81
2024/04/14 00:43:41;;;;;;;;;;;;;;;19.00;97.75;101727.25;5494679;26;998;-81
2024/04/14 00:46:07;;;;;;;;;;;;;;;18.96;98.39;101717.69;5494229;26;997;-81
2024/04/14 00:48:33;;;;;;;;;;;;;;;18.96;98.58;101716.81;5498818;26;1151;-81
2024/04/14 00:51:00;;;;;;;;;;;;;;;18.75;100.00;101709.00;5466406;26;861;-82
2024/04/14 00:53:27;;;;;;;;;;;;;;;18.84;100.00;101713.50;5499278;26;934;-81
2024/04/14 00:55:53;;;;;;;;;;;;;;;18.78;100.00;101712.28;5497749;26;1013;-81
2024/04/14 00:58:19;;;;;;;;;;;;;;;19.24;96.77;101714.84;5466042;26;1210;-82
2024/04/14 01:00:46;;;;;;;;;;;;;;;19.27;98.14;101715.41;5498174;26;1821;-81
2024/04/14 01:03:12;;;;;;;;;;;;;;;19.27;95.76;101722.69;5498448;26;871;-81
2024/04/14 01:05:38;;;;;;;;;;;;;;;19.28;96.79;101727.13;5497469;26;1009;-81
2024/04/14 01:08:04;;;;;;;;;;;;;;;19.17;98.32;101731.81;5465875;26;1163;-81
2024/04/14 01:10:32;;;;;;;;;;;;;;;19.20;100.00;101741.53;5498666;26;1012;-81
2024/04/14 01:12:58;;;;;;;;;;;;;;;19.16;100.00;101742.81;5465863;26;806;-81
2024/04/14 01:15:24;;;;;;;;;;;;;;;19.18;100.00;101740.84;5466087;26;1218;-81
2024/04/14 01:17:50;;;;;;;;;;;;;;;19.16;98.86;101743.69;5499115;26;1178;-82
2024/04/14 01:20:16;;;;;;;;;;;;;;;19.15;94.11;101750.13;5496486;26;1802;-81
2024/04/14 01:22:42;;;;;;;;;;;;;;;18.98;87.33;101756.47;5465335;26;765;-81
2024/04/14 01:25:09;;;;;;;;;;;;;;;18.88;83.51;101763.84;5497424;26;954;-81
2024/04/14 01:27:36;;;;;;;;;;;;;;;18.88;80.13;101766.56;5465516;26;1195;-81
2024/04/14 01:30:05;;;;;;;;;;;;;;;18.86;80.38;101758.53;5466678;26;856;-81
2024/04/14 01:32:37;;;;;;;;;;;;;;;18.72;81.71;101769.97;5497504;26;910;-81
2024/04/14 01:35:04;;;;;;;;;;;;;;;18.63;81.50;101765.41;5496981;26;661;-81
2024/04/14 01:37:30;;;;;;;;;;;;;;;18.59;84.19;101767.59;5465653;26;1238;-81
2024/04/14 01:39:56;;;;;;;;;;;;;;;18.45;82.11;101767.25;5498043;26;1823;-81
2024/04/14 01:42:23;;;;;;;;;;;;;;;18.45;80.43;101778.13;5497405;26;602;-81
2024/04/14 01:44:49;;;;;;;;;;;;;;;18.43;82.26;101786.41;5495039;26;833;-81
2024/04/14 01:47:15;;;;;;;;;;;;;;;18.40;80.61;101792.16;5497735;26;1221;-81
2024/04/14 01:49:41;;;;;;;;;;;;;;;18.48;79.88;101797.66;5497914;26;835;-82
2024/04/14 01:52:06;;;;;;;;;;;;;;;18.33;77.54;101807.34;5465756;26;825;-81
2024/04/14 01:54:33;;;;;;;;;;;;;;;18.12;74.11;101804.03;5497420;26;1001;-81
2024/04/14 01:56:59;;;;;;;;;;;;;;;18.01;74.00;101799.63;5465540;26;1187;-80
2024/04/14 01:59:25;;;;;;;;;;;;;;;17.95;74.51;101797.50;5496933;26;910;-81
2024/04/14 02:01:51;;;;;;;;;;;;;;;17.88;75.26;101807.22;5466372;26;1846;-81
2024/04/14 02:04:16;;;;;;;;;;;;;;;17.89;73.88;101811.66;5496183;26;837;-81
2024/04/14 02:06:43;;;;;;;;;;;;;;;17.83;74.52;101810.41;5498289;26;1230;-81
2024/04/14 02:09:09;;;;;;;;;;;;;;;17.85;73.38;101808.38;5499083;26;1016;-81
2024/04/14 02:11:35;;;;;;;;;;;;;;;17.91;73.35;101815.97;5466817;26;801;-81
2024/04/14 02:14:01;;;;;;;;;;;;;;;17.88;74.31;101812.66;5499205;26;908;-81
2024/04/14 02:16:28;;;;;;;;;;;;;;;17.90;73.50;101825.09;5498738;26;1226;-81
2024/04/14 02:18:54;;;;;;;;;;;;;;;17.97;73.68;101817.19;5499303;26;681;-82
2024/04/14 02:21:20;;;;;;;;;;;;;;;17.91;75.19;101820.53;5499058;26;1847;-81
2024/04/14 02:23:46;;;;;;;;;;;;;;;17.85;74.24;101840.09;5498825;26;835;-81
2024/04/14 02:26:12;;;;;;;;;;;;;;;17.85;74.97;101840.09;5497691;26;1008;-81
2024/04/14 02:28:38;;;;;;;;;;;;;;;17.89;73.29;101830.66;5495786;26;1175;-81
2024/04/14 02:31:04;;;;;;;;;;;;;;;17.90;73.21;101837.81;5495576;26;803;-81
2024/04/14 02:33:30;;;;;;;;;;;;;;;17.93;72.48;101843.81;5498125;26;666;-81
2024/04/14 02:35:58;;;;;;;;;;;;;;;17.92;72.46;101843.94;5497729;26;865;-81
2024/04/14 02:38:25;;;;;;;;;;;;;;;17.95;72.79;101841.78;5466672;26;1246;-81
2024/04/14 02:41:02;;;;;;;;;;;;;;;17.93;72.16;101843.81;5498240;26;1838;-81
2024/04/14 02:43:30;;;;;;;;;;;;;;;17.90;72.87;101845.97;5498628;26;696;-81
2024/04/14 02:45:56;;;;;;;;;;;;;;;17.97;73.64;101853.34;5463703;26;790;-81
2024/04/14 02:48:23;;;;;;;;;;;;;;;18.01;73.25;101849.34;5498471;26;1201;-81
2024/04/14 02:50:49;;;;;;;;;;;;;;;17.99;73.88;101854.09;5498394;26;977;-81
2024/04/14 02:53:16;;;;;;;;;;;;;;;18.00;74.74;101850.38;5466009;26;853;-81
2024/04/14 02:55:42;;;;;;;;;;;;;;;17.99;74.25;101848.66;5497031;26;1004;-81
2024/04/14 02:58:09;;;;;;;;;;;;;;;17.98;73.67;101844.19;5465478;26;1226;-80
2024/04/14 03:00:35;;;;;;;;;;;;;;;17.97;74.81;101855.22;5497959;26;1845;-81
2024/04/14 03:03:02;;;;;;;;;;;;;;;17.98;75.48;101856.91;5497716;26;982;-81
2024/04/14 03:05:28;;;;;;;;;;;;;;;17.95;76.73;101859.94;5465207;26;885;-81
2024/04/14 03:07:54;;;;;;;;;;;;;;;17.82;79.00;101865.69;5498126;26;1182;-81
2024/04/14 03:10:20;;;;;;;;;;;;;;;17.63;82.16;101861.13;5496985;26;903;-81
2024/04/14 03:12:46;;;;;;;;;;;;;;;17.52;82.63;101872.13;5499142;26;1000;-81
2024/04/14 03:15:12;;;;;;;;;;;;;;;17.40;81.66;101875.94;5465549;26;868;-81
2024/04/14 03:17:38;;;;;;;;;;;;;;;17.37;78.80;101878.97;5496961;26;1191;-81
2024/04/14 03:20:05;;;;;;;;;;;;;;;17.42;79.21;101884.84;5466330;26;1845;-81
2024/04/14 03:22:32;;;;;;;;;;;;;;;17.43;78.27;101889.25;5498017;26;913;-81
2024/04/14 03:24:58;;;;;;;;;;;;;;;17.51;76.24;101892.13;5496924;26;926;-81
2024/04/14 03:27:24;;;;;;;;;;;;;;;17.43;75.35;101891.97;5465260;26;1266;-81
2024/04/14 03:29:50;;;;;;;;;;;;;;;17.40;75.65;101890.41;5465117;26;859;-81
2024/04/14 03:32:16;;;;;;;;;;;;;;;17.29;74.81;101892.38;5497264;26;925;-82
2024/04/14 03:34:42;;;;;;;;;;;;;;;17.27;73.77;101897.09;5496188;26;913;-82
2024/04/14 03:37:10;;;;;;;;;;;;;;;17.20;72.07;101892.22;5466016;26;1213;-81
2024/04/14 03:39:36;;;;;;;;;;;;;;;17.15;72.36;101896.38;5497239;26;945;-81
2024/04/14 03:42:03;;;;;;;;;;;;;;;17.09;71.47;101897.75;5465240;26;1809;-81
2024/04/14 03:44:32;;;;;;;;;;;;;;;17.10;71.78;101902.19;5496282;26;945;-81
2024/04/14 03:46:58;;;;;;;;;;;;;;;17.11;71.45;101900.38;5465263;26;1204;-81
2024/04/14 03:49:24;;;;;;;;;;;;;;;16.94;71.17;101901.03;5497190;26;975;-81
2024/04/14 03:51:50;;;;;;;;;;;;;;;16.88;70.09;101915.97;5465091;26;802;-81
2024/04/14 03:54:16;;;;;;;;;;;;;;;16.94;70.95;101909.16;5464679;26;877;-81
2024/04/14 03:56:42;;;;;;;;;;;;;;;16.89;68.68;101917.69;5496626;26;1187;-81
2024/04/14 03:59:09;;;;;;;;;;;;;;;16.84;69.65;101910.00;5497505;26;1013;-81
2024/04/14 04:01:35;;;;;;;;;;;;;;;16.84;68.80;101919.97;5465727;26;1809;-81
2024/04/14 04:04:01;;;;;;;;;;;;;;;16.79;67.83;101916.81;5499323;26;934;-81
2024/04/14 04:06:27;;;;;;;;;;;;;;;16.69;69.15;101926.75;5465890;26;1194;-81
2024/04/14 04:08:53;;;;;;;;;;;;;;;16.66;69.79;101925.16;5466496;26;791;-81
2024/04/14 04:11:19;;;;;;;;;;;;;;;16.78;69.85;101925.94;5464333;26;799;-81
2024/04/14 04:13:45;;;;;;;;;;;;;;;16.87;68.41;101917.84;5496627;26;989;-80
2024/04/14 04:16:11;;;;;;;;;;;;;;;16.88;69.26;101930.38;5495450;26;930;-81
2024/04/14 04:18:37;;;;;;;;;;;;;;;16.87;69.06;101927.81;5464427;26;1183;-82
2024/04/14 04:21:07;;;;;;;;;;;;;;;16.77;70.14;101938.63;5463728;26;1805;-81
2024/04/14 04:23:33;;;;;;;;;;;;;;;16.76;70.29;101944.19;5499545;26;1081;-81
2024/04/14 04:26:01;;;;;;;;;;;;;;;16.73;71.38;101952.59;5467197;26;793;-81
2024/04/14 04:28:27;;;;;;;;;;;;;;;16.78;71.04;101953.88;5499488;26;1179;-81
2024/04/14 04:30:55;;;;;;;;;;;;;;;16.83;71.28;101953.50;5467036;26;753;-81
2024/04/14 04:33:23;;;;;;;;;;;;;;;16.76;71.05;101964.00;5468055;26;873;-81
2024/04/14 04:35:58;;;;;;;;;;;;;;;16.59;70.72;101957.34;5499056;26;907;-81
2024/04/14 04:38:25;;;;;;;;;;;;;;;16.57;70.79;101951.19;5499371;26;1278;-81
2024/04/14 04:40:52;;;;;;;;;;;;;;;16.59;70.86;101954.63;5499903;26;1817;-80
2024/04/14 04:43:24;;;;;;;;;;;;;;;16.54;70.91;101956.03;5468387;26;840;-81
2024/04/14 04:45:51;;;;;;;;;;;;;;;16.58;69.78;101955.63;5498965;26;604;-81
2024/04/14 04:48:17;;;;;;;;;;;;;;;16.54;69.04;101958.75;5467037;26;1155;-81
2024/04/14 04:50:46;;;;;;;;;;;;;;;16.56;70.21;101962.19;5499698;26;980;-80
2024/04/14 04:53:14;;;;;;;;;;;;;;;16.57;68.93;101961.19;5499802;26;988;-81
2024/04/14 04:55:41;;;;;;;;;;;;;;;16.51;69.54;101972.53;5468355;26;779;-82
2024/04/14 04:58:07;;;;;;;;;;;;;;;16.44;71.04;101969.53;5501295;26;1148;-81
2024/04/14 05:00:33;;;;;;;;;;;;;;;16.46;70.55;101970.25;5501196;26;1837;-81
2024/04/14 05:02:59;;;;;;;;;;;;;;;16.49;70.84;101977.25;5468220;26;778;-81
2024/04/14 05:05:25;;;;;;;;;;;;;;;16.44;69.28;101976.81;5499366;26;823;-81
2024/04/14 05:07:51;;;;;;;;;;;;;;;16.45;67.84;101975.81;5500087;26;1147;-81
2024/04/14 05:10:17;;;;;;;;;;;;;;;16.41;66.88;101985.16;5499847;26;925;-81
2024/04/14 05:12:43;;;;;;;;;;;;;;;16.28;65.82;101997.06;5467371;26;857;-81
2024/04/14 05:15:10;;;;;;;;;;;;;;;16.28;65.50;102010.63;5498965;26;869;-81
2024/04/14 05:17:36;;;;;;;;;;;;;;;16.25;65.09;102010.03;5467381;26;1191;-81
2024/04/14 05:20:02;;;;;;;;;;;;;;;16.19;64.82;102011.41;5499805;26;945;-81
2024/04/14 05:22:28;;;;;;;;;;;;;;;16.08;63.85;102003.34;5468317;26;1829;-81
2024/04/14 05:24:54;;;;;;;;;;;;;;;16.06;63.49;102014.31;5499355;26;997;-81
2024/04/14 05:27:20;;;;;;;;;;;;;;;16.15;62.99;102025.34;5498969;26;1228;-81
2024/04/14 05:29:46;;;;;;;;;;;;;;;16.13;62.20;102016.50;5499274;26;1004;-81
2024/04/14 05:32:13;;;;;;;;;;;;;;;16.23;62.10;102015.59;5498842;26;1013;-81
2024/04/14 05:34:39;;;;;;;;;;;;;;;16.30;62.57;102013.19;5498673;26;992;-80
2024/04/14 05:37:05;;;;;;;;;;;;;;;16.30;61.56;102022.16;5467070;26;1212;-81
2024/04/14 05:39:31;;;;;;;;;;;;;;;16.31;61.38;102018.47;5499129;26;724;-81
2024/04/14 05:41:57;;;;;;;;;;;;;;;16.35;61.19;102021.78;5499117;26;1837;-81
2024/04/14 05:44:24;;;;;;;;;;;;;;;16.36;60.70;102028.91;5498628;26;926;-81
2024/04/14 05:46:50;;;;;;;;;;;;;;;16.37;60.12;102032.47;5499190;26;1182;-81
2024/04/14 05:49:20;;;;;;;;;;;;;;;16.40;59.19;102029.50;5498771;26;926;-81
2024/04/14 05:51:46;;;;;;;;;;;;;;;16.44;59.90;102036.38;5498849;26;939;-81
2024/04/14 05:54:12;;;;;;;;;;;;;;;16.43;59.39;102040.94;5498881;26;973;-81
2024/04/14 05:56:38;;;;;;;;;;;;;;;16.31;58.21;102045.53;5497571;26;1237;-81
2024/04/14 05:59:04;;;;;;;;;;;;;;;16.30;57.90;102043.81;5499056;26;977;-81
2024/04/14 06:01:30;;;;;;;;;;;;;;;16.20;57.49;102045.59;5465409;26;1814;-82
2024/04/14 06:03:56;;;;;;;;;;;;;;;16.25;57.65;102037.09;5465754;26;807;-80
2024/04/14 06:06:22;;;;;;;;;;;;;;;16.27;57.33;102038.69;5497335;26;1240;-81
2024/04/14 06:08:48;;;;;;;;;;;;;;;16.26;57.18;102036.13;5497883;26;903;-84
2024/04/14 06:11:14;;;;;;;;;;;;;;;16.31;57.45;102041.97;5495307;26;938;-81
2024/04/14 06:13:40;;;;;;;;;;;;;;;16.32;57.75;102047.28;5467607;26;781;-82
2024/04/14 06:16:06;;;;;;;;;;;;;;;16.37;57.56;102041.47;5495758;26;993;-82
2024/04/14 06:18:32;;;;;;;;;;;;;;;16.28;57.86;102048.53;5496089;26;1163;-82
2024/04/14 06:20:58;;;;;;;;;;;;;;;16.27;57.77;102045.94;5496551;26;1841;-82
2024/04/14 06:23:24;;;;;;;;;;;;;;;16.28;58.66;102056.66;5496311;26;965;-82
2024/04/14 06:25:50;;;;;;;;;;;;;;;16.17;58.07;102050.44;5462728;26;802;-81
2024/04/14 06:28:16;;;;;;;;;;;;;;;16.23;57.10;102042.66;5496175;26;1201;-82
2024/04/14 06:30:42;;;;;;;;;;;;;;;16.34;56.92;102048.00;5495820;26;977;-82
2024/04/14 06:33:08;;;;;;;;;;;;;;;16.18;56.60;102047.59;5495863;26;777;-82
2024/04/14 06:35:35;;;;;;;;;;;;;;;16.22;57.61;102057.19;5495398;26;989;-83
2024/04/14 06:38:02;;;;;;;;;;;;;;;16.17;57.99;102051.28;5496557;26;1202;-85
2024/04/14 06:40:35;;;;;;;;;;;;;;;16.21;57.90;102041.03;5463328;26;908;-84
2024/04/14 06:43:01;;;;;;;;;;;;;;;16.31;58.28;102053.66;5495795;26;1805;-84
2024/04/14 06:45:27;;;;;;;;;;;;;;;16.35;58.34;102051.56;5461265;26;854;-85
2024/04/14 06:48:19;;;;;;;;;;;;;;;16.46;58.11;102050.66;5463274;26;1187;-85
2024/04/14 06:51:06;;;;;;;;;;;;;;;16.50;57.73;102061.06;5495022;26;1610;-85
2024/04/14 06:53:32;;;;;;;;;;;;;;;16.48;59.21;102073.91;5495362;26;748;-85
2024/04/14 06:56:00;;;;;;;;;;;;;;;16.64;58.92;102071.59;5494142;26;816;-85
2024/04/14 06:58:29;;;;;;;;;;;;;;;16.74;57.42;102065.41;5462146;26;1285;-86
2024/04/14 07:00:58;;;;;;;;;;;;;;;16.76;58.55;102077.81;5493843;26;934;-85
2024/04/14 07:03:27;;;;;;;;;;;;;;;16.66;57.19;102089.56;5491755;26;1818;-85
2024/04/14 07:05:53;;;;;;;;;;;;;;;16.53;57.77;102079.78;5492401;26;1244;-82
2024/04/14 07:08:19;;;;;;;;;;;;;;;16.51;57.40;102089.00;5495297;26;1174;-82
2024/04/14 07:10:45;;;;;;;;;;;;;;;16.42;57.45;102087.09;5464586;26;794;-82
2024/04/14 07:13:11;;;;;;;;;;;;;;;16.47;57.30;102087.56;5463614;26;886;-82
2024/04/14 07:15:37;;;;;;;;;;;;;;;16.46;56.57;102084.00;5462878;26;1033;-82
2024/04/14 07:18:03;;;;;;;;;;;;;;;16.46;56.43;102086.72;5462178;26;1270;-82
2024/04/14 07:20:29;;;;;;;;;;;;;;;16.48;57.07;102086.59;5496411;26;987;-83
2024/04/14 07:22:56;;;;;;;;;;;;;;;16.45;56.83;102076.88;5497688;26;1861;-81
2024/04/14 07:25:22;;;;;;;;;;;;;;;16.75;77.15;102086.94;5495039;26;934;-80
2024/04/14 07:27:48;;;;;;;;;;;;;;;16.87;67.61;102091.28;5495709;26;1170;-80
2024/04/14 07:30:14;;;;;;;;;;;;;;;17.01;69.15;102094.63;5516110;25;4881;-81
2024/04/14 07:32:40;;;;;;;;;;;;;;;17.16;67.47;102093.28;5494370;26;3117;-81
2024/04/14 07:35:06;;;;;;;;;;;;;;;17.18;61.65;102085.88;5508328;26;3234;-81
2024/04/14 07:37:32;;;;;;;;;;;;;;;17.15;59.54;102107.84;5523057;26;1288;-80
2024/04/14 07:39:58;;;;;;;;;;;;;;;16.99;62.54;102102.03;5494918;26;1004;-80
2024/04/14 07:42:24;;;;;;;;;;;;;;;16.90;58.96;102101.84;5493011;26;1874;-81
2024/04/14 07:44:50;;;;;;;;;;;;;;;16.92;60.09;102104.47;5493704;26;998;-81
2024/04/14 07:47:16;;;;;;;;;;;;;;;16.99;60.12;102105.63;5492932;26;1195;-79
2024/04/14 07:49:42;;;;;;;;;;;;;;;17.06;62.48;102100.53;5500441;26;2846;-81
2024/04/14 07:52:08;;;;;;;;;;;;;;;17.08;60.04;102093.97;5489927;26;853;-81
2024/04/14 07:54:34;;;;;;;;;;;;;;;17.16;62.20;102102.28;5494312;26;816;-80
2024/04/14 07:57:01;;;;;;;;;;;;;;;17.43;65.03;102115.25;5463152;26;1219;-80
2024/04/14 07:59:28;;;;;;;;;;;;;;;17.38;57.78;102105.78;5495948;26;982;-80
2024/04/14 08:01:54;;;;;;;;;;;;;;;17.43;62.11;102107.13;5497204;26;1821;-80
2024/04/14 08:04:21;;;;;;;;;;;;;;;17.53;56.90;102120.72;5494979;26;1005;-80
2024/04/14 08:06:47;;;;;;;;;;;;;;;17.35;56.21;102119.63;5494726;26;1190;-80
2024/04/14 08:09:13;;;;;;;;;;;;;;;17.38;56.46;102112.06;5495264;26;989;-80
2024/04/14 08:11:38;;;;;;;;;;;;;;;17.38;55.35;102103.94;5491860;26;807;-80
2024/04/14 08:14:08;;;;;;;;;;;;;;;17.39;56.03;102113.78;5462622;26;787;-81
2024/04/14 08:16:34;;;;;;;;;;;;;;;17.39;53.15;102121.06;5494156;26;1187;-81
2024/04/14 08:19:00;;;;;;;;;;;;;;;17.30;52.21;102117.31;5492032;26;809;-81
2024/04/14 08:21:27;;;;;;;;;;;;;;;17.33;56.38;102110.78;5494423;26;1832;-81
2024/04/14 08:23:52;;;;;;;;;;;;;;;17.53;52.51;102122.56;5494160;26;917;-80
2024/04/14 08:26:19;;;;;;;;;;;;;;;17.40;51.55;102122.78;5460221;26;766;-80
2024/04/14 08:28:45;;;;;;;;;;;;;;;17.29;51.62;102123.75;5491979;26;1274;-80
2024/04/14 08:31:11;;;;;;;;;;;;;;;17.35;53.75;102125.06;5494207;26;969;-80
2024/04/14 08:33:37;;;;;;;;;;;;;;;17.56;54.14;102135.84;5494331;26;993;-81
2024/04/14 08:36:04;;;;;;;;;;;;;;;17.62;52.12;102125.31;5493320;26;761;-80
2024/04/14 08:38:31;;;;;;;;;;;;;;;17.59;51.87;102132.84;5494022;26;1220;-81
2024/04/14 08:40:58;;;;;;;;;;;;;;;17.41;51.67;102133.53;5494039;26;937;-80
2024/04/14 08:43:24;;;;;;;;;;;;;;;17.41;51.80;102140.81;5461382;26;1864;-82
2024/04/14 08:45:51;;;;;;;;;;;;;;;17.43;51.22;102141.53;5491593;26;797;-81
2024/04/14 08:48:18;;;;;;;;;;;;;;;17.40;51.68;102137.25;5494282;26;1171;-80
2024/04/14 08:50:46;;;;;;;;;;;;;;;17.46;51.51;102143.94;5493866;26;945;-81
2024/04/14 08:53:15;;;;;;;;;;;;;;;17.53;51.77;102134.28;5494233;26;898;-79
2024/04/14 08:55:42;;;;;;;;;;;;;;;17.53;50.00;102134.28;5493342;26;989;-80
2024/04/14 08:58:09;;;;;;;;;;;;;;;17.49;50.17;102136.38;5492851;26;1187;-81
2024/04/14 09:00:37;;;;;;;;;;;;;;;17.63;50.77;102131.59;5498938;26;1013;-80
2024/04/14 09:03:04;;;;;;;;;;;;;;;17.70;48.49;102135.53;5465103;26;1817;-82
2024/04/14 09:05:37;;;;;;;;;;;;;;;17.74;49.15;102147.81;5493678;26;748;-82
2024/04/14 09:08:03;;;;;;;;;;;;;;;17.91;49.83;102138.13;5494638;26;1154;-81
2024/04/14 09:10:29;;;;;;;;;;;;;;;18.08;49.09;102142.88;5496891;26;807;-80
2024/04/14 09:12:55;;;;;;;;;;;;;;;18.09;47.95;102139.16;5497268;26;984;-80
2024/04/14 09:15:21;;;;;;;;;;;;;;;18.12;47.58;102143.47;5495928;26;808;-80
2024/04/14 09:17:47;;;;;;;;;;;;;;;17.86;46.22;102157.53;5497266;26;1156;-80
2024/04/14 09:20:13;;;;;;;;;;;;;;;17.66;48.00;102140.31;5465323;26;855;-80
2024/04/14 09:22:39;;;;;;;;;;;;;;;17.77;50.65;102142.09;5494751;26;1857;-81
2024/04/14 09:25:06;;;;;;;;;;;;;;;17.96;48.59;102142.13;5496625;26;980;-80
2024/04/14 09:27:33;;;;;;;;;;;;;;;17.91;46.78;102149.84;5497147;26;1207;-81
2024/04/14 09:30:16;;;;;;;;;;;;;;;18.04;47.09;102141.44;5499093;26;4276;-81
2024/04/14 09:32:43;;;;;;;;;;;;;;;18.11;47.30;102142.59;5505250;26;3211;-81
2024/04/14 09:35:10;;;;;;;;;;;;;;;18.29;48.28;102140.06;5492615;26;820;-82
2024/04/14 09:37:38;;;;;;;;;;;;;;;18.01;47.22;102153.44;5495566;26;1195;-80
2024/04/14 09:40:09;;;;;;;;;;;;;;;18.07;47.97;102143.88;5499139;26;910;-80
2024/04/14 09:42:35;;;;;;;;;;;;;;;18.24;47.46;102134.16;5471525;26;2761;-81
2024/04/14 09:45:05;;;;;;;;;;;;;;;18.45;46.62;102132.16;5497107;26;937;-82
2024/04/14 09:47:32;;;;;;;;;;;;;;;18.46;45.42;102131.16;5496673;26;1203;-81
2024/04/14 09:49:59;;;;;;;;;;;;;;;18.74;44.55;102140.34;5526628;25;869;-80
2024/04/14 09:52:25;;;;;;;;;;;;;;;18.67;43.47;102144.63;5498189;26;950;-81
2024/04/14 09:54:52;;;;;;;;;;;;;;;18.49;43.70;102144.50;5500017;26;968;-81
2024/04/14 09:57:21;;;;;;;;;;;;;;;18.56;43.99;102133.88;5500026;26;1183;-80
2024/04/14 09:59:47;;;;;;;;;;;;;;;18.55;44.88;102137.59;5501180;26;946;-81
2024/04/14 10:02:22;;;;;;;;;;;;;;;18.50;45.30;102135.34;5498148;26;1872;-80
2024/04/14 10:04:51;;;;;;;;;;;;;;;18.46;44.45;102147.47;5500504;26;603;-80
2024/04/14 10:07:18;;;;;;;;;;;;;;;18.61;42.82;102143.34;5528914;26;1182;-82
2024/04/14 10:09:49;;;;;;;;;;;;;;;18.67;42.95;102138.34;5501095;26;906;-81
2024/04/14 10:12:18;;;;;;;;;;;;;;;18.49;42.04;102149.91;5497976;26;674;-80
2024/04/14 10:14:47;;;;;;;;;;;;;;;18.39;43.03;102164.50;5498372;26;1019;-80
2024/04/14 10:17:13;;;;;;;;;;;;;;;18.42;44.25;102159.63;5506543;26;4105;-80
2024/04/14 10:19:39;;;;;;;;;;;;;;;18.71;44.84;102156.09;5462251;26;878;-80
2024/04/14 10:22:08;;;;;;;;;;;;;;;18.95;43.41;102155.63;5492664;26;3089;-81
2024/04/14 10:24:47;;;;;;;;;;;;;;;18.96;41.68;102155.47;5495861;26;945;-80
2024/04/14 10:27:13;;;;;;;;;;;;;;;19.05;42.31;102153.72;5496291;26;1217;-80
2024/04/14 10:29:39;;;;;;;;;;;;;;;19.17;42.11;102138.94;5496513;26;1715;-80
2024/04/14 10:32:05;;;;;;;;;;;;;;;19.30;42.91;102163.97;5495417;26;989;-81
2024/04/14 10:34:32;;;;;;;;;;;;;;;19.43;41.57;102150.88;5464165;26;3151;-80
2024/04/14 10:36:58;;;;;;;;;;;;;;;19.22;41.64;102149.41;5499924;26;1232;-81
2024/04/14 10:39:25;;;;;;;;;;;;;;;19.14;41.53;102142.81;5533497;25;1018;-81
2024/04/14 10:41:51;;;;;;;;;;;;;;;19.26;42.30;102145.34;5535417;25;1043;-81
2024/04/14 10:44:18;;;;;;;;;;;;;;;19.07;41.74;102141.69;5534861;26;1851;-80
2024/04/14 10:46:46;;;;;;;;;;;;;;;19.09;41.93;102150.59;5499423;26;1206;-80
2024/04/14 10:49:12;;;;;;;;;;;;;;;19.20;42.58;102149.56;5533017;26;651;-81
2024/04/14 10:51:38;;;;;;;;;;;;;;;19.38;42.43;102149.63;5532237;26;936;-80
2024/04/14 10:54:04;;;;;;;;;;;;;;;19.46;42.86;102144.28;5530820;26;823;-80
2024/04/14 10:56:30;;;;;;;;;;;;;;;19.54;42.59;102149.84;5531982;26;1253;-80
2024/04/14 10:58:57;;;;;;;;;;;;;;;19.60;42.60;102148.44;5532669;25;1008;-81
2024/04/14 11:01:23;;;;;;;;;;;;;;;19.75;42.19;102144.16;5499170;26;790;-81
2024/04/14 11:03:50;;;;;;;;;;;;;;;19.98;42.62;102139.19;5498746;26;1911;-81
2024/04/14 11:06:17;;;;;;;;;;;;;;;20.11;41.54;102136.06;5531810;25;835;-80
2024/04/14 11:08:45;;;;;;;;;;;;;;;20.25;41.65;102135.53;5531865;26;1166;-81
2024/04/14 11:11:12;;;;;;;;;;;;;;;20.24;40.74;102133.81;5517505;26;2649;-80
2024/04/14 11:13:39;;;;;;;;;;;;;;;20.01;41.15;102134.28;5500151;26;857;-81
2024/04/14 11:16:06;;;;;;;;;;;;;;;20.10;40.91;102128.91;5531447;25;1578;-79
2024/04/14 11:18:33;;;;;;;;;;;;;;;20.01;41.58;102120.66;5532070;25;1241;-81
2024/04/14 11:20:59;;;;;;;;;;;;;;;19.94;42.43;102129.59;5534117;26;995;-82
2024/04/14 11:23:27;;;;;;;;;;;;;;;19.67;41.12;102130.50;5532184;26;1826;-82
2024/04/14 11:25:54;;;;;;;;;;;;;;;19.45;40.87;102126.25;5529304;26;829;-81
2024/04/14 11:28:21;;;;;;;;;;;;;;;19.24;42.76;102118.31;5545717;25;1218;-81
2024/04/14 11:30:49;;;;;;;;;;;;;;;19.27;43.24;102117.16;5462237;26;766;-80
2024/04/14 11:33:20;;;;;;;;;;;;;;;19.32;41.49;102123.00;5462288;26;798;-82
2024/04/14 11:35:46;;;;;;;;;;;;;;;19.27;41.96;102119.88;5490238;26;894;-81
2024/04/14 11:38:15;;;;;;;;;;;;;;;19.20;42.11;102117.75;5492881;26;1223;-80
2024/04/14 11:40:41;;;;;;;;;;;;;;;19.25;43.44;102124.59;5491298;26;871;-81
2024/04/14 11:43:07;;;;;;;;;;;;;;;19.20;41.51;102125.06;5494577;26;1825;-81
2024/04/14 11:45:33;;;;;;;;;;;;;;;19.13;42.88;102119.34;5462561;26;883;-81
2024/04/14 11:47:59;;;;;;;;;;;;;;;19.45;41.65;102120.78;5462143;26;1187;-82
2024/04/14 11:50:25;;;;;;;;;;;;;;;19.52;41.12;102116.47;5492892;26;904;-81
2024/04/14 11:52:51;;;;;;;;;;;;;;;19.27;41.49;102118.03;5464528;26;857;-81
2024/04/14 11:55:17;;;;;;;;;;;;;;;19.05;41.88;102110.22;5494754;26;938;-81
2024/04/14 11:57:43;;;;;;;;;;;;;;;19.25;40.70;102105.56;5495205;26;1217;-81
2024/04/14 12:00:09;;;;;;;;;;;;;;;19.37;41.15;102104.34;5496247;26;887;-82
2024/04/14 12:02:35;;;;;;;;;;;;;;;19.33;40.81;102100.22;5464991;26;1817;-81
2024/04/14 12:05:01;;;;;;;;;;;;;;;19.42;41.33;102091.16;5499620;26;933;-81
2024/04/14 12:07:27;;;;;;;;;;;;;;;19.36;41.91;102095.34;5493988;26;1226;-81
2024/04/14 12:09:53;;;;;;;;;;;;;;;19.24;41.63;102096.53;5461431;26;814;-81
2024/04/14 12:12:19;;;;;;;;;;;;;;;19.20;41.23;102084.25;5461076;26;869;-82
2024/04/14 12:14:45;;;;;;;;;;;;;;;19.35;41.13;102076.44;5492854;26;688;-81
2024/04/14 12:17:13;;;;;;;;;;;;;;;19.43;40.02;102079.28;5493962;26;1241;-81
2024/04/14 12:19:39;;;;;;;;;;;;;;;19.17;40.32;102074.53;5461790;26;1170;-81
2024/04/14 12:22:05;;;;;;;;;;;;;;;19.36;41.38;102072.72;5462083;26;796;-81
2024/04/14 12:24:31;;;;;;;;;;;;;;;19.93;40.03;102068.81;5493465;26;1818;-80
2024/04/14 12:26:57;;;;;;;;;;;;;;;20.57;38.71;102064.16;5497423;26;1237;-82
2024/04/14 12:29:23;;;;;;;;;;;;;;;20.82;37.52;102070.59;5462800;26;828;-81
2024/04/14 12:31:49;;;;;;;;;;;;;;;21.10;35.77;102087.66;5493721;26;941;-81
2024/04/14 12:34:16;;;;;;;;;;;;;;;21.26;36.21;102067.78;5493117;26;1006;-81
2024/04/14 12:36:42;;;;;;;;;;;;;;;21.41;33.63;102072.47;5460691;26;1183;-81
2024/04/14 12:39:08;;;;;;;;;;;;;;;21.67;35.45;102060.63;5493163;26;1000;-81
2024/04/14 12:41:34;;;;;;;;;;;;;;;21.78;35.02;102060.31;5460782;26;1045;-82
2024/04/14 12:44:00;;;;;;;;;;;;;;;21.97;33.67;102046.34;5495667;26;1813;-81
2024/04/14 12:46:26;;;;;;;;;;;;;;;22.09;33.76;102055.09;5496109;26;1175;-81
2024/04/14 12:48:52;;;;;;;;;;;;;;;22.50;34.29;102057.84;5496665;26;815;-81
2024/04/14 12:51:18;;;;;;;;;;;;;;;22.62;34.61;102048.28;5497195;26;930;-81